Time;durP1;ratioP1;P1;durP2;ratioP2;P2;SDS_P1;SDS_P2;PMS_P1;PMS_P2;Temp;Humidity;BMP_temperature;BMP_pressure;BME280_temperature;BME280_humidity;BME280_pressure;Samples;Min_cycle;Max_cycle;Signal;HPM_P1;HPM_P2
2021/12/15 00:01:25;;;;;;;94.70;39.33;;;;;;;;;;6209691;23;20350;-82
2021/12/15 00:03:51;;;;;;;88.68;36.95;;;;;;;;;;6184429;23;20405;-81
2021/12/15 00:06:19;;;;;;;87.30;40.28;;;;;;;;;;6209523;23;20027;-82
2021/12/15 00:08:47;;;;;;;83.65;37.03;;;;;;;;;;6209586;23;20012;-82
2021/12/15 00:11:13;;;;;;;79.07;37.50;;;;;;;;;;6209226;23;20071;-82
2021/12/15 00:13:40;;;;;;;85.28;37.03;;;;;;;;;;6184369;23;20047;-81
2021/12/15 00:16:07;;;;;;;88.78;37.45;;;;;;;;;;6209402;23;20083;-82
2021/12/15 00:18:33;;;;;;;74.10;35.30;;;;;;;;;;6209331;23;20017;-82
2021/12/15 00:21:00;;;;;;;81.15;37.03;;;;;;;;;;6184279;23;20039;-82
2021/12/15 00:23:26;;;;;;;86.53;37.95;;;;;;;;;;6209350;23;20017;-82
2021/12/15 00:25:52;;;;;;;75.78;35.40;;;;;;;;;;6209282;23;20016;-82
2021/12/15 00:28:18;;;;;;;78.32;36.42;;;;;;;;;;6184321;23;20458;-82
2021/12/15 00:30:44;;;;;;;86.45;36.97;;;;;;;;;;6209660;23;20087;-82
2021/12/15 00:33:10;;;;;;;85.13;38.08;;;;;;;;;;6210976;23;20087;-82
2021/12/15 00:35:37;;;;;;;93.30;40.40;;;;;;;;;;6209160;23;20187;-82
2021/12/15 00:38:04;;;;;;;86.13;39.65;;;;;;;;;;6209001;23;20028;-82
2021/12/15 00:40:30;;;;;;;83.97;37.22;;;;;;;;;;6209116;23;20024;-82
2021/12/15 00:42:56;;;;;;;87.10;37.75;;;;;;;;;;6209524;23;20087;-82
2021/12/15 00:45:23;;;;;;;84.03;38.95;;;;;;;;;;6209200;23;20013;-82
2021/12/15 00:47:49;;;;;;;89.25;38.15;;;;;;;;;;6209122;23;20240;-82
2021/12/15 00:50:17;;;;;;;83.45;37.72;;;;;;;;;;6184367;23;20302;-82
2021/12/15 00:52:43;;;;;;;87.50;39.45;;;;;;;;;;6209142;23;20012;-82
2021/12/15 00:55:12;;;;;;;83.13;37.97;;;;;;;;;;6208891;23;20401;-82
2021/12/15 00:57:38;;;;;;;80.47;37.03;;;;;;;;;;6208992;23;20135;-82
2021/12/15 01:00:06;;;;;;;84.93;36.60;;;;;;;;;;6208991;23;20100;-82
2021/12/15 01:02:32;;;;;;;84.32;39.03;;;;;;;;;;6183496;23;20020;-81
2021/12/15 01:04:58;;;;;;;81.43;38.78;;;;;;;;;;6208935;23;20139;-82
2021/12/15 01:07:24;;;;;;;85.43;39.40;;;;;;;;;;6209030;23;20017;-82
2021/12/15 01:09:54;;;;;;;83.43;39.40;;;;;;;;;;6183910;23;20015;-82
2021/12/15 01:12:44;;;;;;;84.90;40.10;;;;;;;;;;6209326;23;20102;-82
2021/12/15 01:20:32;;;;;;;90.60;38.10;;;;;;;;;;6208346;23;20458;-82
2021/12/15 01:22:59;;;;;;;82.95;39.15;;;;;;;;;;6208700;23;20017;-82
2021/12/15 01:25:30;;;;;;;87.28;38.35;;;;;;;;;;6208795;23;20341;-82
2021/12/15 01:27:57;;;;;;;81.15;38.85;;;;;;;;;;6183734;23;20044;-82
2021/12/15 01:30:28;;;;;;;80.43;38.58;;;;;;;;;;6210348;23;20021;-82
2021/12/15 01:32:54;;;;;;;78.25;38.45;;;;;;;;;;6208549;23;20017;-82
2021/12/15 01:35:21;;;;;;;86.97;38.20;;;;;;;;;;6208659;23;20062;-82
2021/12/15 01:37:47;;;;;;;80.82;38.08;;;;;;;;;;6208430;23;20052;-82
2021/12/15 01:40:21;;;;;;;81.32;37.65;;;;;;;;;;6207617;23;20079;-82
2021/12/15 01:42:47;;;;;;;82.88;38.88;;;;;;;;;;6208588;23;20012;-83
2021/12/15 01:48:06;;;;;;;90.55;39.13;;;;;;;;;;6208624;23;20017;-81
2021/12/15 01:50:33;;;;;;;84.47;38.42;;;;;;;;;;6208540;23;20044;-82
2021/12/15 01:52:59;;;;;;;87.82;38.88;;;;;;;;;;6208565;23;20048;-81
2021/12/15 01:55:26;;;;;;;82.78;36.80;;;;;;;;;;6183443;23;20358;-82
2021/12/15 01:57:52;;;;;;;79.47;35.95;;;;;;;;;;6208496;23;20017;-82
2021/12/15 02:00:22;;;;;;;82.88;37.45;;;;;;;;;;6183332;23;20086;-82
2021/12/15 02:02:50;;;;;;;80.32;38.60;;;;;;;;;;6183284;23;20013;-82
2021/12/15 02:05:16;;;;;;;75.18;35.60;;;;;;;;;;6208481;23;20299;-82
2021/12/15 02:07:43;;;;;;;80.40;37.47;;;;;;;;;;6208726;23;20016;-83
2021/12/15 02:10:10;;;;;;;78.53;36.78;;;;;;;;;;6183662;23;20084;-82
2021/12/15 02:12:37;;;;;;;75.93;36.78;;;;;;;;;;6208300;23;20023;-82
2021/12/15 02:15:06;;;;;;;77.78;37.00;;;;;;;;;;6208356;23;20466;-82
2021/12/15 02:17:32;;;;;;;76.45;35.88;;;;;;;;;;6183367;23;20016;-82
2021/12/15 02:19:58;;;;;;;80.03;38.13;;;;;;;;;;6208324;23;20024;-82
2021/12/15 02:22:25;;;;;;;85.50;37.90;;;;;;;;;;6208412;23;20020;-82
2021/12/15 02:24:52;;;;;;;87.78;37.03;;;;;;;;;;6208664;23;20024;-82
2021/12/15 02:27:18;;;;;;;86.38;37.33;;;;;;;;;;6208578;23;20013;-83
2021/12/15 02:29:47;;;;;;;74.97;36.10;;;;;;;;;;6208464;23;20012;-81
2021/12/15 02:32:24;;;;;;;78.43;37.13;;;;;;;;;;6208289;23;20048;-83
2021/12/15 02:37:22;;;;;;;84.28;38.80;;;;;;;;;;6207660;23;20020;-82
2021/12/15 02:39:48;;;;;;;86.05;37.20;;;;;;;;;;6208129;23;20017;-82
2021/12/15 02:42:14;;;;;;;82.55;38.00;;;;;;;;;;6183071;23;20027;-83
2021/12/15 02:44:43;;;;;;;84.47;39.47;;;;;;;;;;6208288;23;20134;-83
2021/12/15 02:47:11;;;;;;;74.15;35.33;;;;;;;;;;6208191;23;20124;-83
2021/12/15 02:49:37;;;;;;;79.13;38.53;;;;;;;;;;6183012;23;20012;-82
2021/12/15 02:52:04;;;;;;;81.85;36.22;;;;;;;;;;6208001;23;20016;-83
2021/12/15 02:54:30;;;;;;;81.25;37.90;;;;;;;;;;6208239;23;20448;-82
2021/12/15 02:57:04;;;;;;;73.03;35.55;;;;;;;;;;6209664;23;20017;-82
2021/12/15 02:59:38;;;;;;;79.47;37.35;;;;;;;;;;6208144;23;20075;-82
2021/12/15 03:02:15;;;;;;;76.30;35.57;;;;;;;;;;6208074;23;20088;-83
2021/12/15 03:04:46;;;;;;;72.72;35.75;;;;;;;;;;6183093;23;20012;-82
2021/12/15 03:07:23;;;;;;;79.03;37.65;;;;;;;;;;6182432;23;20505;-82
2021/12/15 03:15:34;;;;;;;75.93;36.03;;;;;;;;;;6207946;23;20024;-83
2021/12/15 03:18:02;;;;;;;84.07;37.30;;;;;;;;;;6208033;23;20017;-83
2021/12/15 03:20:34;;;;;;;72.55;36.30;;;;;;;;;;6208313;23;20083;-82
2021/12/15 03:23:00;;;;;;;75.35;37.38;;;;;;;;;;6208012;23;20017;-83
2021/12/15 03:25:29;;;;;;;78.03;37.30;;;;;;;;;;6209183;23;20017;-83
2021/12/15 03:36:22;;;;;;;74.22;36.30;;;;;;;;;;6209635;23;20021;-82
2021/12/15 03:38:48;;;;;;;78.32;36.88;;;;;;;;;;6209970;23;20024;-83
2021/12/15 03:41:14;;;;;;;78.57;35.90;;;;;;;;;;6208839;23;20013;-83
2021/12/15 03:43:40;;;;;;;73.07;36.83;;;;;;;;;;6209732;23;20535;-82
2021/12/15 03:46:13;;;;;;;72.05;35.92;;;;;;;;;;6184748;23;20339;-82
2021/12/15 03:48:42;;;;;;;75.82;37.15;;;;;;;;;;6209665;23;20064;-83
2021/12/15 03:51:08;;;;;;;67.55;34.30;;;;;;;;;;6209796;23;20023;-83
2021/12/15 03:53:34;;;;;;;70.32;34.13;;;;;;;;;;6184633;23;20154;-82
2021/12/15 03:56:01;;;;;;;72.10;34.58;;;;;;;;;;6184655;23;20023;-83
2021/12/15 03:58:27;;;;;;;79.50;35.58;;;;;;;;;;6209634;23;20016;-82
2021/12/15 04:00:55;;;;;;;72.78;34.88;;;;;;;;;;6209764;23;20016;-84
2021/12/15 04:03:23;;;;;;;74.82;36.22;;;;;;;;;;6209654;23;20016;-83
2021/12/15 04:05:49;;;;;;;76.00;37.47;;;;;;;;;;6209728;23;20020;-84
2021/12/15 04:08:16;;;;;;;70.03;36.13;;;;;;;;;;6209724;23;20012;-83
2021/12/15 04:10:42;;;;;;;70.85;35.25;;;;;;;;;;6209969;23;20016;-82
2021/12/15 04:13:09;;;;;;;72.03;36.42;;;;;;;;;;6209574;23;20021;-84
2021/12/15 04:15:43;;;;;;;77.75;36.80;;;;;;;;;;6210026;23;20443;-83
2021/12/15 04:18:10;;;;;;;77.55;37.03;;;;;;;;;;6209533;23;20016;-83
2021/12/15 04:20:36;;;;;;;78.32;36.38;;;;;;;;;;6211227;23;20016;-84
2021/12/15 04:23:04;;;;;;;73.32;35.55;;;;;;;;;;6209508;23;20351;-82
2021/12/15 04:25:32;;;;;;;74.07;36.25;;;;;;;;;;6209460;23;20087;-85
2021/12/15 04:28:03;;;;;;;73.95;36.00;;;;;;;;;;6209479;23;20070;-83
2021/12/15 04:30:31;;;;;;;76.53;35.80;;;;;;;;;;6209599;23;20024;-84
2021/12/15 04:32:59;;;;;;;78.25;37.08;;;;;;;;;;6184476;23;20517;-84
2021/12/15 04:35:25;;;;;;;79.35;36.75;;;;;;;;;;6209073;23;20012;-83
2021/12/15 04:37:51;;;;;;;76.32;34.78;;;;;;;;;;6208954;23;20024;-84
2021/12/15 04:40:20;;;;;;;76.63;35.78;;;;;;;;;;6209689;23;20412;-83
2021/12/15 04:42:46;;;;;;;74.05;36.63;;;;;;;;;;6208821;23;20385;-84
2021/12/15 04:45:16;;;;;;;72.35;36.58;;;;;;;;;;6209369;23;20013;-84
2021/12/15 04:47:42;;;;;;;73.97;35.88;;;;;;;;;;6209328;23;20013;-84
2021/12/15 04:50:09;;;;;;;71.97;34.33;;;;;;;;;;6209362;23;20019;-83
2021/12/15 04:52:35;;;;;;;77.05;36.50;;;;;;;;;;6209215;23;20048;-84
2021/12/15 04:55:02;;;;;;;73.38;36.65;;;;;;;;;;6209135;23;20024;-83
2021/12/15 04:57:28;;;;;;;79.13;38.20;;;;;;;;;;6209260;23;20317;-84
2021/12/15 04:59:54;;;;;;;81.30;36.50;;;;;;;;;;6209103;23;20122;-84
2021/12/15 05:02:21;;;;;;;75.75;36.53;;;;;;;;;;6208957;23;20096;-84
2021/12/15 05:04:47;;;;;;;72.90;37.75;;;;;;;;;;6209042;23;20349;-84
2021/12/15 05:07:13;;;;;;;75.15;37.95;;;;;;;;;;6208959;23;20020;-84
2021/12/15 05:09:39;;;;;;;69.97;35.88;;;;;;;;;;6209357;23;20055;-83
2021/12/15 05:12:06;;;;;;;74.15;37.15;;;;;;;;;;6208909;23;20096;-84
2021/12/15 05:14:32;;;;;;;76.20;37.33;;;;;;;;;;6208642;23;20159;-84
2021/12/15 05:16:59;;;;;;;72.25;36.45;;;;;;;;;;6208724;23;20013;-83
2021/12/15 05:19:26;;;;;;;67.32;36.55;;;;;;;;;;6208941;23;20274;-84
2021/12/15 05:21:54;;;;;;;73.32;38.13;;;;;;;;;;6208979;23;20470;-84
2021/12/15 05:27:05;;;;;;;73.28;37.55;;;;;;;;;;6208919;23;20019;-84
2021/12/15 05:29:31;;;;;;;69.63;35.50;;;;;;;;;;6209068;23;20015;-84
2021/12/15 05:31:57;;;;;;;75.80;36.55;;;;;;;;;;6208459;23;20036;-83
2021/12/15 05:34:25;;;;;;;72.35;35.92;;;;;;;;;;6208824;23;20028;-84
2021/12/15 05:36:52;;;;;;;74.60;36.65;;;;;;;;;;6208234;23;20024;-82
2021/12/15 05:39:18;;;;;;;76.82;38.20;;;;;;;;;;6208255;23;20020;-83
2021/12/15 05:41:44;;;;;;;78.13;39.53;;;;;;;;;;6207668;23;20436;-82
2021/12/15 05:44:10;;;;;;;67.05;34.75;;;;;;;;;;6208911;23;20013;-84
2021/12/15 05:46:36;;;;;;;77.00;36.45;;;;;;;;;;6208301;23;20203;-83
2021/12/15 05:49:03;;;;;;;76.50;38.38;;;;;;;;;;6208017;23;20159;-84
2021/12/15 05:51:29;;;;;;;75.63;39.65;;;;;;;;;;6210578;23;20451;-83
2021/12/15 05:53:55;;;;;;;78.97;38.30;;;;;;;;;;6208570;23;20021;-84
2021/12/15 05:56:21;;;;;;;70.25;37.08;;;;;;;;;;6208693;23;20022;-85
2021/12/15 05:58:48;;;;;;;76.95;37.72;;;;;;;;;;6208496;23;20310;-83
2021/12/15 06:01:14;;;;;;;76.75;37.03;;;;;;;;;;6208880;23;20024;-84
2021/12/15 06:03:41;;;;;;;81.28;37.97;;;;;;;;;;6210039;23;20016;-83
2021/12/15 06:06:08;;;;;;;77.43;38.35;;;;;;;;;;6183284;23;20012;-84
2021/12/15 06:08:34;;;;;;;72.47;35.75;;;;;;;;;;6182690;23;20385;-83
2021/12/15 06:11:00;;;;;;;73.60;38.05;;;;;;;;;;6208575;23;20069;-83
2021/12/15 06:13:27;;;;;;;68.07;36.53;;;;;;;;;;6208489;23;20016;-84
2021/12/15 06:15:54;;;;;;;79.45;39.17;;;;;;;;;;6208959;23;20465;-85
2021/12/15 06:18:20;;;;;;;77.82;39.25;;;;;;;;;;6208630;23;20039;-84
2021/12/15 06:20:47;;;;;;;76.80;38.67;;;;;;;;;;6208485;23;20469;-83
2021/12/15 06:23:21;;;;;;;71.90;36.33;;;;;;;;;;6208812;23;20368;-84
2021/12/15 06:25:57;;;;;;;71.22;36.72;;;;;;;;;;6208801;23;20582;-84
2021/12/15 06:28:24;;;;;;;69.18;35.13;;;;;;;;;;6208748;23;20013;-85
2021/12/15 06:30:51;;;;;;;76.68;37.85;;;;;;;;;;6208491;23;20017;-83
2021/12/15 06:33:17;;;;;;;70.70;37.05;;;;;;;;;;6208399;23;20016;-84
2021/12/15 06:35:52;;;;;;;75.00;39.08;;;;;;;;;;6209148;23;20437;-84
2021/12/15 06:38:19;;;;;;;73.75;37.67;;;;;;;;;;6208227;23;20198;-84
2021/12/15 06:40:45;;;;;;;69.65;37.55;;;;;;;;;;6208622;23;20016;-84
2021/12/15 06:43:11;;;;;;;73.65;37.20;;;;;;;;;;6207145;23;20099;-84
2021/12/15 06:45:50;;;;;;;71.18;38.42;;;;;;;;;;6181841;23;20157;-85
2021/12/15 06:59:14;;;;;;;65.20;35.88;;;;;;;;;;6208437;23;20016;-84
2021/12/15 07:01:41;;;;;;;79.97;38.15;;;;;;;;;;6209002;23;20040;-85
2021/12/15 07:04:06;;;;;;;77.90;39.58;;;;;;;;;;6208534;23;20017;-85
2021/12/15 07:06:32;;;;;;;69.13;36.17;;;;;;;;;;6183319;23;20015;-85
2021/12/15 07:08:58;;;;;;;68.43;37.60;;;;;;;;;;6207926;23;20017;-84
2021/12/15 07:11:24;;;;;;;65.28;36.38;;;;;;;;;;6209053;23;20009;-85
2021/12/15 07:13:51;;;;;;;69.85;37.03;;;;;;;;;;6208937;23;20096;-85
2021/12/15 07:16:19;;;;;;;72.88;37.53;;;;;;;;;;6183572;23;20074;-83
2021/12/15 07:21:50;;;;;;;67.05;37.20;;;;;;;;;;6129996;23;20017;-84
2021/12/15 07:24:17;;;;;;;64.63;35.65;;;;;;;;;;6208890;23;20018;-85
2021/12/15 07:26:43;;;;;;;68.22;35.88;;;;;;;;;;6208376;23;20067;-85
2021/12/15 07:29:09;;;;;;;67.90;36.97;;;;;;;;;;6208773;23;20029;-85
2021/12/15 07:31:35;;;;;;;64.40;35.13;;;;;;;;;;6208280;23;20012;-84
2021/12/15 07:34:00;;;;;;;60.60;35.47;;;;;;;;;;6208314;23;20178;-84
2021/12/15 07:36:26;;;;;;;69.10;35.90;;;;;;;;;;6208867;23;20017;-84
2021/12/15 07:38:55;;;;;;;67.53;34.70;;;;;;;;;;6208289;23;20020;-85
2021/12/15 07:41:37;;;;;;;66.50;34.85;;;;;;;;;;6208429;23;20020;-84
2021/12/15 07:44:04;;;;;;;64.40;34.58;;;;;;;;;;6208139;23;20362;-84
2021/12/15 07:46:30;;;;;;;60.53;34.10;;;;;;;;;;6207883;23;20017;-84
2021/12/15 07:48:56;;;;;;;65.13;34.95;;;;;;;;;;6207980;23;20454;-84
2021/12/15 07:51:22;;;;;;;61.70;33.45;;;;;;;;;;6183331;23;20670;-83
2021/12/15 07:53:48;;;;;;;59.22;33.53;;;;;;;;;;6207774;23;20070;-83
2021/12/15 07:56:15;;;;;;;58.67;32.72;;;;;;;;;;6207999;23;20059;-82
2021/12/15 07:58:41;;;;;;;61.95;31.83;;;;;;;;;;6207969;23;20100;-84
2021/12/15 08:01:07;;;;;;;54.60;31.33;;;;;;;;;;6208193;23;20019;-84
2021/12/15 08:03:37;;;;;;;66.07;32.15;;;;;;;;;;6208101;23;20020;-84
2021/12/15 08:06:03;;;;;;;53.40;31.13;;;;;;;;;;6208274;23;20015;-84
2021/12/15 08:08:30;;;;;;;52.85;29.40;;;;;;;;;;6208059;23;20028;-84
2021/12/15 08:10:57;;;;;;;52.50;28.83;;;;;;;;;;6182935;23;20395;-84
2021/12/15 08:13:24;;;;;;;50.50;27.67;;;;;;;;;;6209743;23;20047;-84
2021/12/15 08:15:50;;;;;;;53.50;28.95;;;;;;;;;;6209843;23;20095;-84
2021/12/15 08:18:16;;;;;;;52.17;27.90;;;;;;;;;;6184867;23;20022;-84
2021/12/15 08:20:42;;;;;;;53.40;28.85;;;;;;;;;;6209529;23;20074;-85
2021/12/15 08:23:08;;;;;;;48.83;28.83;;;;;;;;;;6209524;23;20072;-85
2021/12/15 08:25:35;;;;;;;49.50;26.67;;;;;;;;;;6209831;23;20009;-85
2021/12/15 08:28:01;;;;;;;46.65;25.58;;;;;;;;;;6210096;23;20020;-85
2021/12/15 08:30:29;;;;;;;50.85;28.08;;;;;;;;;;6185044;23;20431;-84
2021/12/15 08:32:56;;;;;;;47.13;26.92;;;;;;;;;;6209776;23;20012;-84
2021/12/15 08:35:24;;;;;;;43.90;26.02;;;;;;;;;;6209325;23;20020;-84
2021/12/15 08:37:51;;;;;;;49.97;26.63;;;;;;;;;;6209157;23;20020;-85
2021/12/15 08:40:18;;;;;;;49.10;26.35;;;;;;;;;;6209981;23;20017;-84
2021/12/15 08:42:45;;;;;;;48.88;26.63;;;;;;;;;;6184968;23;20017;-85
2021/12/15 08:45:11;;;;;;;43.13;25.23;;;;;;;;;;6209884;23;20067;-85
2021/12/15 08:47:37;;;;;;;46.03;26.38;;;;;;;;;;6210092;23;20274;-83
2021/12/15 08:50:06;;;;;;;43.83;24.60;;;;;;;;;;6211288;23;20044;-86
2021/12/15 08:52:32;;;;;;;46.80;24.77;;;;;;;;;;6209989;23;20158;-85
2021/12/15 08:54:58;;;;;;;42.45;24.77;;;;;;;;;;6211835;23;20016;-86
2021/12/15 08:57:25;;;;;;;45.17;23.92;;;;;;;;;;6210934;23;20013;-85
2021/12/15 08:59:50;;;;;;;40.08;23.45;;;;;;;;;;6210207;23;20390;-85
2021/12/15 09:02:17;;;;;;;43.92;24.80;;;;;;;;;;6210159;23;20017;-85
2021/12/15 09:04:43;;;;;;;41.70;23.90;;;;;;;;;;6185764;23;20090;-86
2021/12/15 09:07:09;;;;;;;41.10;23.80;;;;;;;;;;6211218;23;20473;-85
2021/12/15 09:09:35;;;;;;;39.45;24.02;;;;;;;;;;6211029;23;20698;-85
2021/12/15 09:12:04;;;;;;;39.08;24.55;;;;;;;;;;6211300;23;20039;-86
2021/12/15 09:14:30;;;;;;;47.35;24.95;;;;;;;;;;6210744;23;20016;-85
2021/12/15 09:16:57;;;;;;;39.88;24.55;;;;;;;;;;6186290;23;20023;-85
2021/12/15 09:19:23;;;;;;;38.35;23.38;;;;;;;;;;6211889;23;20072;-87
2021/12/15 09:21:51;;;;;;;41.92;24.42;;;;;;;;;;6211510;23;20024;-86
2021/12/15 09:24:18;;;;;;;40.03;23.63;;;;;;;;;;6210829;23;20331;-86
2021/12/15 09:26:44;;;;;;;41.20;23.50;;;;;;;;;;6210447;23;20012;-86
2021/12/15 09:29:10;;;;;;;41.30;23.23;;;;;;;;;;6211163;23;20019;-85
2021/12/15 09:31:36;;;;;;;42.10;24.33;;;;;;;;;;6211191;23;20088;-85
2021/12/15 09:34:04;;;;;;;42.70;23.77;;;;;;;;;;6211976;23;20023;-86
2021/12/15 09:36:30;;;;;;;44.33;24.45;;;;;;;;;;6211153;23;20021;-86
2021/12/15 09:38:59;;;;;;;41.95;23.80;;;;;;;;;;6186857;23;20025;-86
2021/12/15 09:41:25;;;;;;;41.70;23.10;;;;;;;;;;6210402;23;20515;-83
2021/12/15 09:43:54;;;;;;;37.60;22.67;;;;;;;;;;6209616;23;20017;-86
2021/12/15 09:46:35;;;;;;;39.00;21.85;;;;;;;;;;6211635;23;20012;-86
2021/12/15 09:57:25;;;;;;;37.08;21.33;;;;;;;;;;6208879;23;20063;-86
2021/12/15 10:02:49;;;;;;;35.10;20.77;;;;;;;;;;6209013;23;20020;-85
2021/12/15 10:10:44;;;;;;;;;;;;;;;;;;6208073;23;20016;-85
2021/12/15 10:19:18;;;;;;;36.22;20.17;;;;;;;;;;6209456;23;20024;-85
2021/12/15 10:21:56;;;;;;;32.45;19.70;;;;;;;;;;6208909;23;20322;-86
2021/12/15 10:24:34;;;;;;;29.20;17.58;;;;;;;;;;6209827;23;20013;-87
2021/12/15 10:27:03;;;;;;;33.42;18.98;;;;;;;;;;6208394;23;20058;-86
2021/12/15 10:29:29;;;;;;;27.88;18.48;;;;;;;;;;6208910;23;20048;-84
2021/12/15 10:32:04;;;;;;;34.13;18.63;;;;;;;;;;6209660;23;20024;-86
2021/12/15 10:34:30;;;;;;;28.00;17.17;;;;;;;;;;6209240;23;20024;-86
2021/12/15 10:36:57;;;;;;;27.63;16.00;;;;;;;;;;6208740;23;20469;-85
2021/12/15 10:39:23;;;;;;;27.15;17.15;;;;;;;;;;6208509;23;20027;-88
2021/12/15 10:41:52;;;;;;;27.65;16.83;;;;;;;;;;6208805;23;20009;-86
2021/12/15 10:44:22;;;;;;;26.75;16.05;;;;;;;;;;6209619;23;20020;-85
2021/12/15 10:46:58;;;;;;;30.23;18.55;;;;;;;;;;6213092;23;20477;-87
2021/12/15 10:49:24;;;;;;;28.25;16.27;;;;;;;;;;6212214;23;20324;-86
2021/12/15 10:51:53;;;;;;;29.33;16.75;;;;;;;;;;6209914;23;20023;-86
2021/12/15 10:54:21;;;;;;;27.58;16.33;;;;;;;;;;6210018;23;20094;-86
2021/12/15 10:56:53;;;;;;;25.63;15.90;;;;;;;;;;6210831;23;20020;-86
2021/12/15 10:59:19;;;;;;;27.70;16.35;;;;;;;;;;6209801;23;20016;-86
2021/12/15 11:01:48;;;;;;;29.40;17.77;;;;;;;;;;6210146;23;20062;-86
2021/12/15 11:04:29;;;;;;;28.65;16.60;;;;;;;;;;6212097;23;20347;-86
2021/12/15 11:07:14;;;;;;;27.83;15.63;;;;;;;;;;6210888;23;20013;-86
2021/12/15 11:09:58;;;;;;;25.52;15.07;;;;;;;;;;6210784;23;20013;-86
2021/12/15 11:12:29;;;;;;;25.60;15.57;;;;;;;;;;6209743;23;20096;-84
2021/12/15 11:15:05;;;;;;;27.98;15.25;;;;;;;;;;6211211;23;20016;-86
2021/12/15 11:17:33;;;;;;;23.35;13.18;;;;;;;;;;6186376;23;20074;-87
2021/12/15 11:20:01;;;;;;;26.67;14.65;;;;;;;;;;6211370;23;20460;-85
2021/12/15 11:22:36;;;;;;;26.33;14.82;;;;;;;;;;6211063;23;20091;-86
2021/12/15 11:25:03;;;;;;;22.08;13.70;;;;;;;;;;6210045;23;20017;-87
2021/12/15 11:27:30;;;;;;;23.05;13.30;;;;;;;;;;6211317;23;20417;-87
2021/12/15 11:29:56;;;;;;;23.00;12.85;;;;;;;;;;6214043;23;20015;-87
2021/12/15 11:32:42;;;;;;;21.95;12.27;;;;;;;;;;6210809;23;20088;-86
2021/12/15 11:35:11;;;;;;;21.42;12.30;;;;;;;;;;6189159;23;20044;-85
2021/12/15 11:37:48;;;;;;;19.33;11.20;;;;;;;;;;6186517;23;20017;-85
2021/12/15 11:40:15;;;;;;;21.25;10.70;;;;;;;;;;6210078;23;20024;-86
2021/12/15 11:42:41;;;;;;;19.35;10.43;;;;;;;;;;6209818;23;20019;-86
2021/12/15 11:45:08;;;;;;;18.73;10.98;;;;;;;;;;6209182;23;20087;-86
2021/12/15 11:47:36;;;;;;;16.40;10.30;;;;;;;;;;6214015;23;20012;-85
2021/12/15 11:50:08;;;;;;;17.52;10.27;;;;;;;;;;6211270;23;20087;-85
2021/12/15 11:52:39;;;;;;;15.50;8.77;;;;;;;;;;6186113;23;20099;-87
2021/12/15 11:55:07;;;;;;;18.30;9.60;;;;;;;;;;6210266;23;20044;-86
2021/12/15 11:57:33;;;;;;;14.85;8.05;;;;;;;;;;6209861;23;20021;-86
2021/12/15 12:00:05;;;;;;;16.00;7.75;;;;;;;;;;6210355;23;20024;-86
2021/12/15 12:02:38;;;;;;;15.10;7.47;;;;;;;;;;6211515;23;20023;-85
2021/12/15 12:05:06;;;;;;;14.00;7.57;;;;;;;;;;6211450;23;20017;-86
2021/12/15 12:07:33;;;;;;;17.40;8.30;;;;;;;;;;6185116;23;20020;-84
2021/12/15 12:10:11;;;;;;;13.65;7.20;;;;;;;;;;6210244;23;20019;-86
2021/12/15 12:12:41;;;;;;;15.02;7.90;;;;;;;;;;6210801;23;20094;-87
2021/12/15 12:15:13;;;;;;;13.43;7.35;;;;;;;;;;6186047;23;20022;-87
2021/12/15 12:17:40;;;;;;;16.15;7.63;;;;;;;;;;6185671;23;20028;-86
2021/12/15 12:20:09;;;;;;;16.92;8.25;;;;;;;;;;6210165;23;20090;-86
2021/12/15 12:22:35;;;;;;;14.77;7.72;;;;;;;;;;6210063;23;20021;-85
2021/12/15 12:25:07;;;;;;;15.00;7.80;;;;;;;;;;6185817;23;20036;-86
2021/12/15 12:27:33;;;;;;;16.42;7.90;;;;;;;;;;6211257;23;20070;-86
2021/12/15 12:30:00;;;;;;;16.13;7.90;;;;;;;;;;6209856;23;20017;-86
2021/12/15 12:32:26;;;;;;;16.38;8.75;;;;;;;;;;6210819;23;20697;-85
2021/12/15 12:34:53;;;;;;;15.45;8.93;;;;;;;;;;6210247;23;20084;-87
2021/12/15 12:37:20;;;;;;;17.98;8.80;;;;;;;;;;6185162;23;20051;-84
2021/12/15 12:39:53;;;;;;;19.33;10.50;;;;;;;;;;6211827;23;20024;-87
2021/12/15 12:42:36;;;;;;;18.52;9.18;;;;;;;;;;6211781;23;20013;-87
2021/12/15 12:45:11;;;;;;;16.35;8.90;;;;;;;;;;6186237;23;20135;-88
2021/12/15 12:47:45;;;;;;;14.70;9.23;;;;;;;;;;6186775;23;20044;-87
2021/12/15 13:01:09;;;;;;;16.85;8.48;;;;;;;;;;6212282;23;20397;-88
2021/12/15 13:03:39;;;;;;;13.77;7.88;;;;;;;;;;6210997;23;20016;-85
2021/12/15 13:06:12;;;;;;;15.50;8.15;;;;;;;;;;6213054;23;20083;-88
2021/12/15 13:08:42;;;;;;;14.63;7.67;;;;;;;;;;6211758;23;20469;-87
2021/12/15 13:11:18;;;;;;;15.20;7.03;;;;;;;;;;6187436;23;20031;-85
2021/12/15 13:14:01;;;;;;;15.65;6.63;;;;;;;;;;6212385;23;20024;-88
2021/12/15 13:16:29;;;;;;;10.38;5.85;;;;;;;;;;6210759;23;20013;-87
2021/12/15 13:18:58;;;;;;;15.23;6.05;;;;;;;;;;6187062;23;20016;-88
2021/12/15 13:21:43;;;;;;;13.02;5.85;;;;;;;;;;6212775;23;20458;-88
2021/12/15 13:28:40;;;;;;;10.95;5.63;;;;;;;;;;6211440;23;20088;-87
2021/12/15 13:29:58;;;;;;;12.88;5.18;;;;;;;;;;6213324;23;20395;-88
2021/12/15 13:32:30;;;;;;;10.38;5.00;;;;;;;;;;6212151;23;20047;-88
2021/12/15 13:34:56;;;;;;;13.25;5.18;;;;;;;;;;6211365;23;20019;-87
2021/12/15 13:37:41;;;;;;;10.40;4.32;;;;;;;;;;6211337;23;20450;-85
2021/12/15 13:40:10;;;;;;;10.07;4.38;;;;;;;;;;6211831;23;20331;-87
2021/12/15 13:42:40;;;;;;;8.95;3.97;;;;;;;;;;6212072;23;20020;-88
2021/12/15 13:45:24;;;;;;;9.68;4.50;;;;;;;;;;6212904;23;20085;-87
2021/12/15 13:47:50;;;;;;;11.55;4.05;;;;;;;;;;6212739;23;20009;-88
2021/12/15 13:50:19;;;;;;;10.48;4.38;;;;;;;;;;6212575;23;20051;-89
2021/12/15 13:52:45;;;;;;;10.75;4.78;;;;;;;;;;6212064;23;20363;-87
2021/12/15 13:55:38;;;;;;;8.40;4.18;;;;;;;;;;6211584;23;20481;-88
2021/12/15 13:58:10;;;;;;;10.73;4.22;;;;;;;;;;6206219;23;20446;-88
2021/12/15 14:00:42;;;;;;;7.10;3.63;;;;;;;;;;6208849;23;20056;-86
2021/12/15 14:03:13;;;;;;;11.40;5.85;;;;;;;;;;6209197;23;20020;-87
2021/12/15 14:05:41;;;;;;;10.68;4.40;;;;;;;;;;6183621;23;20013;-87
2021/12/15 14:08:30;;;;;;;10.13;4.35;;;;;;;;;;6208352;23;20015;-87
2021/12/15 14:10:58;;;;;;;10.13;4.18;;;;;;;;;;6194284;23;20465;-87
2021/12/15 14:13:36;;;;;;;10.55;3.95;;;;;;;;;;6183603;23;20026;-86
2021/12/15 14:16:02;;;;;;;11.77;4.57;;;;;;;;;;6208346;23;20013;-87
2021/12/15 14:18:31;;;;;;;10.30;4.68;;;;;;;;;;6184525;23;20357;-88
2021/12/15 14:21:00;;;;;;;10.38;4.47;;;;;;;;;;6211089;23;20063;-88
2021/12/15 14:23:31;;;;;;;9.50;4.40;;;;;;;;;;6209973;23;20020;-88
2021/12/15 14:25:58;;;;;;;8.48;4.05;;;;;;;;;;6183826;23;20099;-88
2021/12/15 14:28:25;;;;;;;11.00;4.22;;;;;;;;;;6208455;23;20012;-88
2021/12/15 14:30:56;;;;;;;10.07;4.50;;;;;;;;;;6208748;23;20016;-88
2021/12/15 14:33:27;;;;;;;8.77;4.53;;;;;;;;;;6208404;23;20012;-88
2021/12/15 14:35:55;;;;;;;10.23;4.18;;;;;;;;;;6208206;23;20024;-87
2021/12/15 14:38:31;;;;;;;9.77;4.18;;;;;;;;;;6183746;23;20469;-88
2021/12/15 14:40:57;;;;;;;13.57;4.53;;;;;;;;;;6208413;23;20087;-88
2021/12/15 14:43:23;;;;;;;10.73;4.18;;;;;;;;;;6208119;23;20017;-88
2021/12/15 14:45:49;;;;;;;10.68;4.30;;;;;;;;;;6207982;23;20015;-88
2021/12/15 14:48:16;;;;;;;7.60;4.07;;;;;;;;;;6208247;23;20017;-87
2021/12/15 14:50:42;;;;;;;8.02;3.75;;;;;;;;;;6208585;23;20197;-87
2021/12/15 14:53:08;;;;;;;9.88;3.88;;;;;;;;;;6182713;23;20020;-87
2021/12/15 14:55:35;;;;;;;10.23;4.30;;;;;;;;;;6207856;23;20047;-87
2021/12/15 14:58:01;;;;;;;9.55;3.85;;;;;;;;;;6208964;23;20044;-87
2021/12/15 15:00:38;;;;;;;9.95;4.65;;;;;;;;;;6183559;23;20500;-87
2021/12/15 15:03:05;;;;;;;7.47;3.92;;;;;;;;;;6208018;23;20017;-87
2021/12/15 15:05:43;;;;;;;8.98;3.60;;;;;;;;;;6210080;23;20403;-87
2021/12/15 15:08:12;;;;;;;8.50;3.38;;;;;;;;;;6209492;23;20044;-88
2021/12/15 15:10:40;;;;;;;8.80;3.35;;;;;;;;;;6209077;23;20016;-88
2021/12/15 15:13:06;;;;;;;8.85;3.40;;;;;;;;;;6209256;23;20052;-89
2021/12/15 15:15:34;;;;;;;8.25;2.83;;;;;;;;;;6209827;23;20024;-87
2021/12/15 15:18:34;;;;;;;10.45;2.83;;;;;;;;;;6208812;23;20084;-88
2021/12/15 15:21:08;;;;;;;6.45;3.22;;;;;;;;;;6208800;23;20024;-88
2021/12/15 15:23:38;;;;;;;6.88;3.08;;;;;;;;;;6186768;23;20016;-89
2021/12/15 15:26:05;;;;;;;10.00;3.30;;;;;;;;;;6210965;23;20044;-87
2021/12/15 15:28:34;;;;;;;6.88;3.42;;;;;;;;;;6212543;23;20354;-89
2021/12/15 15:31:04;;;;;;;7.38;2.92;;;;;;;;;;6213596;23;20023;-90
2021/12/15 15:33:34;;;;;;;8.45;3.83;;;;;;;;;;6213428;23;20023;-90
2021/12/15 15:36:23;;;;;;;8.77;3.33;;;;;;;;;;6187612;23;20044;-88
2021/12/15 15:38:52;;;;;;;9.38;3.42;;;;;;;;;;6211290;23;20086;-88
2021/12/15 15:41:18;;;;;;;6.55;3.40;;;;;;;;;;6186030;23;20070;-88
2021/12/15 15:43:51;;;;;;;7.15;3.38;;;;;;;;;;6210953;23;20353;-88
2021/12/15 15:46:18;;;;;;;10.90;3.40;;;;;;;;;;6211211;23;20087;-86
2021/12/15 15:48:44;;;;;;;8.50;3.10;;;;;;;;;;6210661;23;20017;-86